createdAt,value
2022-10-30T00:01:06.354Z,46
2022-10-30T00:06:46.849Z,54
2022-10-30T00:12:26.832Z,46
2022-10-30T00:18:07.045Z,40
2022-10-30T00:23:47.206Z,44
2022-10-30T00:29:27.197Z,44
2022-10-30T00:35:07.330Z,54
2022-10-30T00:40:47.601Z,54
2022-10-30T00:46:27.668Z,46
2022-10-30T00:52:07.809Z,50
2022-10-30T00:57:47.661Z,56
2022-10-30T01:03:27.789Z,42
2022-10-30T01:09:08.296Z,44
2022-10-30T01:14:49.047Z,54
2022-10-30T01:20:29.012Z,46
2022-10-30T01:26:09.391Z,44
2022-10-30T01:31:49.411Z,46
2022-10-30T01:37:29.491Z,46
2022-10-30T01:43:09.818Z,44
2022-10-30T01:48:50.030Z,56
2022-10-30T02:00:01.148Z,52
2022-10-30T02:05:41.523Z,58
2022-10-30T02:11:21.581Z,56
2022-10-30T02:17:01.719Z,56
2022-10-30T02:22:42.304Z,52
2022-10-30T02:28:22.693Z,52
2022-10-30T02:34:02.949Z,40
2022-10-30T02:39:42.992Z,52
2022-10-30T02:45:23.007Z,52
2022-10-30T02:51:03.169Z,44
2022-10-30T02:56:43.339Z,58
2022-10-30T03:02:23.851Z,54
2022-10-30T03:08:04.251Z,56
2022-10-30T03:13:44.477Z,52
2022-10-30T03:19:24.287Z,46
2022-10-30T03:25:07.387Z,34
2022-10-30T03:30:47.532Z,40
2022-10-30T03:36:27.734Z,56
2022-10-30T03:42:07.853Z,56
2022-10-30T03:47:47.854Z,44
2022-10-30T03:53:27.644Z,46
2022-10-30T03:59:07.801Z,56
2022-10-30T04:04:50.162Z,34
2022-10-30T04:10:30.113Z,58
2022-10-30T04:16:10.246Z,46
2022-10-30T04:22:13.414Z,44
2022-10-30T04:27:53.764Z,46
2022-10-30T04:33:33.857Z,46
2022-10-30T04:39:14.027Z,46
2022-10-30T04:44:53.898Z,46
2022-10-30T04:50:34.013Z,44
2022-10-30T04:56:14.072Z,46
2022-10-30T05:01:54.867Z,56
2022-10-30T05:07:35.657Z,58
2022-10-30T05:13:15.935Z,44
2022-10-30T05:18:55.949Z,54
2022-10-30T05:24:38.583Z,56
2022-10-30T05:30:19.136Z,50
2022-10-30T05:35:59.402Z,46
2022-10-30T05:41:39.650Z,48
2022-10-30T05:47:19.636Z,48
2022-10-30T05:52:59.819Z,46
2022-10-30T05:58:40.070Z,56
2022-10-30T06:04:20.293Z,54
2022-10-30T06:10:00.089Z,58
2022-10-30T06:15:40.098Z,58
2022-10-30T06:21:20.183Z,52
2022-10-30T06:27:00.320Z,52
2022-10-30T06:32:40.484Z,54
2022-10-30T06:38:20.618Z,54
2022-10-30T06:44:00.597Z,52
2022-10-30T06:49:40.779Z,50
2022-10-30T06:55:21.003Z,58
2022-10-30T07:01:01.904Z,46
2022-10-30T07:06:42.667Z,54
2022-10-30T07:12:22.882Z,48
2022-10-30T07:18:04.518Z,46
2022-10-30T07:23:44.789Z,56
2022-10-30T07:29:24.852Z,42
2022-10-30T07:35:05.005Z,56
2022-10-30T07:40:45.255Z,54
2022-10-30T07:46:34.871Z,50
2022-10-30T07:52:28.819Z,52
2022-10-30T07:58:12.008Z,58
2022-10-30T08:03:52.428Z,52
2022-10-30T08:09:32.396Z,42
2022-10-30T08:15:15.598Z,56
2022-10-30T08:20:55.932Z,48
2022-10-30T08:26:36.602Z,56
2022-10-30T08:32:16.845Z,54
2022-10-30T08:38:00.230Z,60
2022-10-30T08:43:41.980Z,54
2022-10-30T08:49:22.348Z,58
2022-10-30T08:55:02.347Z,56
2022-10-30T09:00:42.766Z,126
2022-10-30T09:06:25.144Z,60
2022-10-30T09:12:06.014Z,20
2022-10-30T09:17:46.209Z,10
2022-10-30T09:23:26.068Z,12
2022-10-30T09:29:05.711Z,4
2022-10-30T09:34:46.043Z,10
2022-10-30T09:40:26.053Z,16
2022-10-30T09:46:07.815Z,6
2022-10-30T09:51:48.176Z,12
2022-10-30T09:57:28.438Z,6
2022-10-30T10:03:17.836Z,8
2022-10-30T10:14:00.497Z,18
2022-10-30T10:19:41.430Z,8
2022-10-30T10:25:21.759Z,12
2022-10-30T10:31:03.466Z,12
2022-10-30T10:36:44.658Z,8
2022-10-30T10:42:24.806Z,12
2022-10-30T10:48:15.749Z,2
2022-10-30T10:53:58.444Z,24
2022-10-30T10:59:38.108Z,10
2022-10-30T11:05:17.843Z,32
2022-10-30T11:10:58.478Z,4
2022-10-30T11:16:41.119Z,6
2022-10-30T11:22:20.950Z,4
2022-10-30T11:28:01.832Z,26
2022-10-30T11:33:41.875Z,8
2022-10-30T11:39:22.463Z,10
2022-10-30T11:45:06.062Z,84
2022-10-30T11:50:46.208Z,4
2022-10-30T11:56:26.658Z,28
2022-10-30T12:02:08.213Z,8
2022-10-30T12:07:54.120Z,16
2022-10-30T12:13:34.066Z,6
2022-10-30T12:19:14.379Z,10
2022-10-30T12:24:59.127Z,14
2022-10-30T12:30:38.967Z,12
2022-10-30T12:36:19.443Z,18
2022-10-30T12:42:01.832Z,38
2022-10-30T12:47:51.569Z,40
2022-10-30T12:53:34.249Z,20
2022-10-30T12:59:17.215Z,14
2022-10-30T13:04:59.364Z,10
2022-10-30T13:10:40.991Z,6
2022-10-30T13:16:21.006Z,14
2022-10-30T13:22:01.168Z,14
2022-10-30T13:27:41.432Z,6
2022-10-30T13:33:21.358Z,16
2022-10-30T13:39:03.636Z,8
2022-10-30T13:44:44.367Z,12
2022-10-30T13:50:24.347Z,12
2022-10-30T13:56:06.620Z,14
2022-10-30T14:01:50.067Z,46
2022-10-30T14:07:34.178Z,10
2022-10-30T14:13:14.391Z,52
2022-10-30T14:18:54.681Z,26
2022-10-30T14:24:34.709Z,56
2022-10-30T14:30:15.206Z,50
2022-10-30T14:35:55.354Z,56
2022-10-30T14:41:35.469Z,48
2022-10-30T14:47:15.914Z,54
2022-10-30T14:52:57.651Z,62
2022-10-30T14:58:38.938Z,56
2022-10-30T15:04:19.253Z,52
2022-10-30T15:09:59.161Z,56
2022-10-30T15:15:38.849Z,58
2022-10-30T15:21:18.811Z,52
2022-10-30T15:27:01.489Z,58
2022-10-30T15:32:41.385Z,52
2022-10-30T15:38:21.382Z,54
2022-10-30T15:44:01.394Z,42
2022-10-30T15:49:41.252Z,56
2022-10-30T15:55:21.204Z,48
2022-10-30T16:01:01.609Z,52
2022-10-30T16:06:42.416Z,60
2022-10-30T16:12:22.532Z,48
2022-10-30T16:18:04.863Z,48
2022-10-30T16:23:45.015Z,52
2022-10-30T16:29:25.354Z,56
2022-10-30T16:35:05.470Z,48
2022-10-30T16:40:45.659Z,56
2022-10-30T16:46:28.244Z,54
2022-10-30T16:52:08.304Z,58
2022-10-30T16:57:51.695Z,44
2022-10-30T17:03:31.881Z,48
2022-10-30T17:09:11.742Z,54
2022-10-30T17:14:51.700Z,46
2022-10-30T17:20:32.086Z,48
2022-10-30T17:26:12.324Z,46
2022-10-30T17:31:52.266Z,44
2022-10-30T17:37:32.596Z,56
2022-10-30T17:43:12.862Z,44
2022-10-30T17:48:52.999Z,42
2022-10-30T17:54:33.019Z,52
2022-10-30T18:00:13.506Z,56
2022-10-30T18:05:53.773Z,58
2022-10-30T18:11:33.955Z,46
2022-10-30T18:17:19.722Z,50
2022-10-30T18:23:55.344Z,56
2022-10-30T18:29:39.363Z,46
2022-10-30T18:35:24.427Z,44
2022-10-30T18:41:10.462Z,56
2022-10-30T18:46:50.419Z,44
2022-10-30T18:52:30.677Z,46
2022-10-30T18:58:22.486Z,50
2022-10-30T19:04:11.474Z,42
2022-10-30T19:10:03.572Z,52
2022-10-30T19:16:17.082Z,48
2022-10-30T19:21:59.903Z,50
2022-10-30T19:27:43.739Z,48
2022-10-30T19:33:30.620Z,54
2022-10-30T19:39:26.993Z,54
2022-10-30T19:45:10.166Z,46
2022-10-30T19:50:50.200Z,40
2022-10-30T19:56:41.852Z,46
2022-10-30T20:02:23.119Z,46
2022-10-30T20:08:11.830Z,46
2022-10-30T20:14:37.588Z,40
2022-10-30T20:20:18.652Z,48
2022-10-30T20:26:04.121Z,56
2022-10-30T20:31:47.047Z,44
2022-10-30T20:38:10.202Z,44
2022-10-30T20:43:50.720Z,58
2022-10-30T20:49:34.876Z,56
2022-10-30T20:55:23.778Z,52
2022-10-30T21:01:20.887Z,54
2022-10-30T21:07:02.393Z,40
2022-10-30T21:13:24.877Z,56
2022-10-30T21:19:11.951Z,46
2022-10-30T21:24:52.703Z,56
2022-10-30T21:30:41.138Z,56
2022-10-30T21:36:21.362Z,56
2022-10-30T21:42:02.331Z,48
2022-10-30T21:47:42.610Z,58
2022-10-30T21:53:22.574Z,48
2022-10-30T21:59:03.217Z,52
2022-10-30T22:04:43.329Z,58
2022-10-30T22:10:23.480Z,48
2022-10-30T22:16:03.801Z,54
2022-10-30T22:21:43.913Z,56
2022-10-30T22:27:24.197Z,46
2022-10-30T22:33:04.267Z,54
2022-10-30T22:38:44.115Z,54
2022-10-30T22:44:24.149Z,54
2022-10-30T22:50:07.303Z,48
2022-10-30T22:55:48.271Z,54
2022-10-30T23:01:28.606Z,54
2022-10-30T23:07:09.575Z,56
2022-10-30T23:12:49.549Z,44
2022-10-30T23:18:29.469Z,54
2022-10-30T23:24:09.355Z,54
2022-10-30T23:29:49.848Z,46
2022-10-30T23:35:32.814Z,56
2022-10-30T23:41:13.222Z,42
2022-10-30T23:46:54.223Z,44
2022-10-30T23:52:39.469Z,48
2022-10-30T23:58:22.508Z,50
